Airfield :
LOGIN :

Register | Disclaimer

   EN    FR    IT 

 










Legend :    VFR   Marginal VFR   IFR   Intensive IFR   Very Intensive IFR
Visi :
Ceiling :
>= 8 km
>= 3000ft
5 to 8 km
1000 to 3000 ft
1500m to 5 km
500 to 1000 ft
800 to 1500m
200 to 500 ft
< 800m
< 200 ft
Symbols :   Thunderstorms  Fog  Heavy snow  Heavy precipitations  Wind > 20 kt
SIGMETs :     Misc.  Thunderstorms  Icing  Turbulence  Mountain Waves  Volcanic Ashes






- Airport Elevation : 1058 ft
- IATA code : SCN


EDDR - Saarbrücken

CURRENT METAR :
  • 151420Z 21003KT 170V240 9999 SCT050TCU 27/15 Q1014 NOSIG

EXPIRED METARs :
  • 151350Z 18004KT 110V240 9999 SCT050TCU 26/15 Q1014 NOSIG
  • 151320Z 23006KT 170V270 9999 SCT046TCU 27/15 Q1015 NOSIG
  • 151250Z VRB01KT 9999 SCT046 26/15 Q1015 NOSIG
  • 151220Z VRB04KT 9999 SCT038 26/15 Q1015 NOSIG
  • 151150Z 26004KT 190V330 9999 SCT036 26/15 Q1015 NOSIG

TAF TAF EDDR
Valid from the 15 at 12:00 until the 16 at 12:00 UTC


151100Z 1512/1612 30004KT 9999 SCT030
PROB30
TEMPO 1512/1517 4500 TSRA BKN020CB
BECMG 1514/1516 06005KT
PROB30
TEMPO 1600/1607 3000 BCFG BKN004
BECMG 1610/1612 18005KT



MET'MAP, your aeronautical weather chart ! - Copyright ORBIFLY December 2007 - Disclaimer

ORBIFLY MET'MAP TEAM :

Programming & Development : Alexandra Zaïnal
Concept & original design : Baudouin d'Aumeries
Assistance for programming : Marc-Olivier Méhu
Technical & hardware support : Manuel Goepfert

Contact : metmap@orbifly.com




SOURCES & CREDITS :

   NOAA